Time;durP1;ratioP1;P1;durP2;ratioP2;P2;SDS_P1;SDS_P2;PMS_P1;PMS_P2;Temp;Humidity;BMP_temperature;BMP_pressure;BME280_temperature;BME280_humidity;BME280_pressure;Samples;Min_cycle;Max_cycle;Signal;HPM_P1;HPM_P2
2023/03/15 00:00:45;;;;;;;38.35;29.52;;;;;;;9.01;100.00;100731.63;2085827;28;20053;-74
2023/03/15 00:02:09;;;;;;;15.30;8.57;;;;;;;8.98;100.00;100724.59;2091377;28;20033;-74
2023/03/15 00:03:35;;;;;;;13.75;7.13;;;;;;;8.96;100.00;100730.66;2102215;28;20063;-74
2023/03/15 00:04:58;;;;;;;8.13;4.25;;;;;;;8.96;100.00;100731.56;2080199;28;20474;-75
2023/03/15 00:06:20;;;;;;;14.15;8.15;;;;;;;8.95;100.00;100716.59;2083054;28;20045;-75
2023/03/15 00:07:42;;;;;;;12.55;7.53;;;;;;;8.93;100.00;100726.19;2085916;28;20053;-74
2023/03/15 00:09:05;;;;;;;14.32;6.05;;;;;;;8.90;100.00;100722.63;2077447;28;20159;-74
2023/03/15 00:10:26;;;;;;;13.02;6.93;;;;;;;8.89;100.00;100720.84;2083652;28;20091;-74
2023/03/15 00:11:49;;;;;;;21.90;11.20;;;;;;;8.85;100.00;100729.56;2093968;28;20144;-74
2023/03/15 00:13:13;;;;;;;14.27;7.75;;;;;;;8.81;100.00;100723.31;2088120;28;20060;-75
2023/03/15 00:14:37;;;;;;;12.40;6.13;;;;;;;8.81;100.00;100725.94;2086269;28;20052;-75
2023/03/15 00:16:02;;;;;;;12.30;5.88;;;;;;;8.80;100.00;100724.16;2087194;28;20039;-75
2023/03/15 00:17:25;;;;;;;12.63;5.10;;;;;;;8.77;100.00;100718.84;2094449;28;20048;-74
2023/03/15 00:18:48;;;;;;;13.25;7.65;;;;;;;8.74;100.00;100722.28;2094271;28;20060;-74
2023/03/15 00:20:13;;;;;;;12.18;5.78;;;;;;;8.71;100.00;100719.59;2093987;28;20048;-74
2023/03/15 00:21:34;;;;;;;14.90;4.80;;;;;;;8.62;100.00;100711.50;2094326;28;20036;-75
2023/03/15 00:22:57;;;;;;;11.13;6.32;;;;;;;8.58;100.00;100714.03;2093965;28;20511;-74
2023/03/15 00:24:19;;;;;;;7.78;4.35;;;;;;;8.57;100.00;100721.03;2094117;28;20107;-74
2023/03/15 00:25:43;;;;;;;9.82;4.40;;;;;;;8.60;100.00;100718.47;2093958;28;20048;-74
2023/03/15 00:27:05;;;;;;;6.97;3.75;;;;;;;8.62;100.00;100724.66;2094110;28;20427;-75
2023/03/15 00:28:27;;;;;;;8.82;4.72;;;;;;;8.65;100.00;100719.47;2094238;28;20068;-74
2023/03/15 00:29:49;;;;;;;8.68;4.95;;;;;;;8.68;100.00;100713.38;2085490;28;20072;-74
2023/03/15 00:31:14;;;;;;;14.48;8.25;;;;;;;8.69;100.00;100710.78;2091253;28;20440;-74
2023/03/15 00:32:38;;;;;;;11.05;5.95;;;;;;;8.69;100.00;100713.41;2094529;28;20098;-74
2023/03/15 00:34:00;;;;;;;13.30;7.68;;;;;;;8.66;100.00;100715.09;2093730;28;20036;-74
2023/03/15 00:35:23;;;;;;;14.10;7.07;;;;;;;8.66;100.00;100708.06;2094024;28;20045;-74
2023/03/15 00:36:46;;;;;;;14.20;10.65;;;;;;;8.64;100.00;100706.28;2094265;28;20060;-74
2023/03/15 00:38:07;;;;;;;14.50;10.75;;;;;;;8.60;100.00;100704.44;2085597;28;20049;-74
2023/03/15 00:39:29;;;;;;;13.23;7.45;;;;;;;8.58;100.00;100699.13;2090849;28;20110;-74
2023/03/15 00:40:51;;;;;;;14.38;6.50;;;;;;;8.58;100.00;100696.50;2094082;28;20044;-74
2023/03/15 00:42:14;;;;;;;12.70;5.75;;;;;;;8.58;100.00;100698.25;2093657;28;20094;-73
2023/03/15 00:43:36;;;;;;;11.80;5.70;;;;;;;8.57;100.00;100689.47;2088244;28;20067;-73
2023/03/15 00:44:59;;;;;;;9.10;6.22;;;;;;;8.57;100.00;100688.56;2088238;28;20048;-73
2023/03/15 00:46:21;;;;;;;7.25;4.45;;;;;;;8.57;100.00;100689.47;2091144;28;20419;-73
2023/03/15 00:47:44;;;;;;;9.93;6.25;;;;;;;8.59;100.00;100686.88;2093813;28;20068;-74
2023/03/15 00:49:06;;;;;;;13.20;5.50;;;;;;;8.61;100.00;100682.50;2093571;28;20052;-73
2023/03/15 00:50:29;;;;;;;8.70;3.70;;;;;;;8.62;100.00;100682.56;2085508;28;20087;-73
2023/03/15 00:51:53;;;;;;;9.25;2.75;;;;;;;8.63;100.00;100684.34;2091389;28;20037;-73
2023/03/15 00:53:15;;;;;;;18.27;6.15;;;;;;;8.61;100.00;100683.41;2085761;28;20056;-73
2023/03/15 00:54:37;;;;;;;15.50;6.57;;;;;;;8.54;100.00;100678.84;2091094;28;20048;-73
2023/03/15 00:55:59;;;;;;;7.63;3.30;;;;;;;8.52;100.00;100675.31;2093562;28;20799;-74
2023/03/15 00:57:22;;;;;;;8.93;3.75;;;;;;;8.57;100.00;100676.31;2093709;28;20048;-74
2023/03/15 00:58:45;;;;;;;6.55;3.33;;;;;;;8.60;100.00;100686.88;2093777;28;20147;-75
2023/03/15 01:00:08;;;;;;;18.23;10.02;;;;;;;8.57;100.00;100689.47;2093881;28;20055;-74
2023/03/15 01:01:31;;;;;;;10.15;4.28;;;;;;;8.54;100.00;100678.84;2093845;28;20052;-74
2023/03/15 01:02:54;;;;;;;10.00;3.42;;;;;;;8.55;100.00;100679.75;2085016;28;20602;-74
2023/03/15 01:04:16;;;;;;;7.75;4.00;;;;;;;8.55;100.00;100679.75;2084844;28;20072;-75
2023/03/15 01:05:37;;;;;;;5.88;2.78;;;;;;;8.55;100.00;100678.00;2077282;28;20498;-74
2023/03/15 01:07:00;;;;;;;12.68;5.40;;;;;;;8.54;100.00;100677.97;2074696;28;20143;-75
2023/03/15 01:08:23;;;;;;;13.43;7.30;;;;;;;8.52;100.00;100684.97;2083010;28;20044;-74
2023/03/15 01:09:44;;;;;;;26.60;22.15;;;;;;;8.48;100.00;100686.63;2076854;28;20156;-74
2023/03/15 01:11:08;;;;;;;13.68;10.52;;;;;;;8.43;100.00;100680.38;2083137;28;20041;-74
2023/03/15 01:12:32;;;;;;;7.30;3.58;;;;;;;8.43;100.00;100679.47;2077409;28;20046;-74
2023/03/15 01:13:57;;;;;;;6.57;3.42;;;;;;;8.41;100.00;100682.06;2083133;28;20079;-75
2023/03/15 01:15:19;;;;;;;10.25;3.80;;;;;;;8.41;100.00;100687.31;2086674;28;20037;-75
2023/03/15 01:16:40;;;;;;;9.35;6.30;;;;;;;8.35;100.00;100693.34;2085260;28;20343;-74
2023/03/15 01:18:06;;;;;;;41.25;37.13;;;;;;;8.17;100.00;100692.88;2085539;28;20062;-74
2023/03/15 01:19:27;;;;;;;36.20;32.83;;;;;;;8.05;100.00;100683.81;2085736;28;20512;-74
2023/03/15 01:20:50;;;;;;;9.82;5.55;;;;;;;8.01;100.00;100675.84;2085365;28;20052;-74
2023/03/15 01:22:14;;;;;;;6.32;2.63;;;;;;;8.04;100.00;100685.53;2093895;28;20044;-74
2023/03/15 01:23:38;;;;;;;7.25;2.78;;;;;;;8.10;100.00;100684.81;2079481;28;20049;-75
2023/03/15 01:24:59;;;;;;;10.80;6.07;;;;;;;8.14;100.00;100690.16;2083116;28;20055;-75
2023/03/15 01:26:22;;;;;;;10.15;4.05;;;;;;;8.16;100.00;100687.56;2093442;28;20051;-74
2023/03/15 01:27:43;;;;;;;10.43;6.57;;;;;;;8.18;100.00;100689.41;2079709;28;20140;-75
2023/03/15 01:29:05;;;;;;;27.63;24.33;;;;;;;8.20;100.00;100686.81;2082930;28;20543;-75
2023/03/15 01:30:28;;;;;;;30.33;26.55;;;;;;;8.21;100.00;100685.94;2076879;28;20418;-75
2023/03/15 01:31:50;;;;;;;17.23;14.82;;;;;;;8.22;100.00;100685.09;2082945;28;20049;-74
2023/03/15 01:33:13;;;;;;;9.82;5.78;;;;;;;8.25;100.00;100691.31;2085416;28;20067;-74
2023/03/15 01:34:36;;;;;;;5.63;3.05;;;;;;;8.29;100.00;100692.28;2077162;28;20092;-74
2023/03/15 01:36:00;;;;;;;5.15;2.92;;;;;;;8.32;100.00;100689.75;2083022;28;20524;-74
2023/03/15 01:37:23;;;;;;;8.05;2.90;;;;;;;8.33;100.00;100686.28;2077372;28;20097;-73
2023/03/15 01:38:48;;;;;;;6.57;2.67;;;;;;;8.34;100.00;100688.03;2082831;28;20103;-73
2023/03/15 01:40:13;;;;;;;5.68;3.05;;;;;;;8.31;100.00;100686.25;2077853;28;20053;-74
2023/03/15 01:41:38;;;;;;;11.82;7.00;;;;;;;8.19;100.00;100682.41;2077776;28;20144;-74
2023/03/15 01:43:17;;;;;;;13.43;6.10;;;;;;;8.10;100.00;100690.94;2090627;28;20452;-74
2023/03/15 01:44:50;;;;;;;11.60;5.18;;;;;;;8.08;100.00;100681.25;2079280;28;20083;-74
2023/03/15 01:46:23;;;;;;;8.93;4.50;;;;;;;8.06;100.00;100675.06;2077603;28;20046;-74
2023/03/15 01:47:47;;;;;;;15.65;7.10;;;;;;;8.04;100.00;100679.41;2078818;28;20052;-75
2023/03/15 01:49:14;;;;;;;33.67;16.40;;;;;;;8.00;100.00;100678.44;2074607;28;20509;-74
2023/03/15 01:50:37;;;;;;;8.70;4.05;;;;;;;7.96;100.00;100677.47;2084315;28;20053;-74
2023/03/15 01:52:05;;;;;;;11.30;5.38;;;;;;;7.98;100.00;100681.03;2081179;28;20522;-74
2023/03/15 01:53:42;;;;;;;12.95;4.88;;;;;;;7.98;100.00;100686.28;2080693;28;20560;-74
2023/03/15 01:55:09;;;;;;;11.50;4.40;;;;;;;7.96;100.00;100676.59;2085398;28;20045;-74
2023/03/15 01:56:34;;;;;;;16.13;6.20;;;;;;;7.94;100.00;100680.94;2087792;28;20055;-74
2023/03/15 01:58:00;;;;;;;11.80;6.35;;;;;;;7.94;100.00;100691.44;2078594;28;20140;-74
2023/03/15 01:59:32;;;;;;;14.00;6.18;;;;;;;7.90;100.00;100693.09;2085618;28;20041;-74
2023/03/15 02:00:53;;;;;;;4.60;2.35;;;;;;;7.78;100.00;100692.78;2079747;28;20046;-74
2023/03/15 02:02:17;;;;;;;5.43;2.38;;;;;;;7.66;100.00;100699.47;2077251;28;20084;-74
2023/03/15 02:03:45;;;;;;;5.18;1.85;;;;;;;7.55;100.00;100693.91;2079779;28;20045;-73
2023/03/15 02:05:14;;;;;;;5.70;1.80;;;;;;;7.43;100.00;100698.84;2086134;28;20045;-74
2023/03/15 02:06:36;;;;;;;7.22;2.53;;;;;;;7.32;100.00;100698.56;2085578;28;20505;-73
2023/03/15 02:07:58;;;;;;;;;;;;;;;7.23;100.00;100700.91;2092808;28;20054;-74
2023/03/15 02:09:28;;;;;;;40.65;32.33;;;;;;;7.25;100.00;100703.59;2087388;28;20363;-74
2023/03/15 02:10:52;;;;;;;18.70;12.15;;;;;;;7.33;100.00;100702.06;2085120;28;20052;-74
2023/03/15 02:12:15;;;;;;;19.60;12.27;;;;;;;7.40;100.00;100699.66;2084653;28;20056;-74
2023/03/15 02:13:37;;;;;;;18.23;12.07;;;;;;;7.45;100.00;100692.78;2086961;28;20405;-74
2023/03/15 02:15:07;;;;;;;15.93;11.95;;;;;;;7.48;100.00;100695.47;2087459;28;20182;-74
2023/03/15 02:16:31;;;;;;;16.88;10.75;;;;;;;7.52;100.00;100696.47;2084957;28;20044;-74
2023/03/15 02:17:58;;;;;;;11.18;6.10;;;;;;;7.54;100.00;100697.41;2081205;28;20049;-74
2023/03/15 02:19:34;;;;;;;12.18;6.93;;;;;;;7.55;100.00;100697.44;2092425;28;20055;-74
2023/03/15 02:21:08;;;;;;;8.43;4.72;;;;;;;7.56;100.00;100696.59;2081076;28;20471;-74
2023/03/15 02:22:42;;;;;;;9.02;4.53;;;;;;;7.60;100.00;100694.94;2086709;28;20041;-74
2023/03/15 02:24:17;;;;;;;10.10;4.10;;;;;;;7.61;100.00;100697.59;2088509;28;20080;-75
2023/03/15 02:25:47;;;;;;;7.68;4.60;;;;;;;7.62;100.00;100695.84;2080393;28;20131;-74
2023/03/15 02:27:09;;;;;;;10.88;6.60;;;;;;;7.63;100.00;100691.50;2085492;28;20049;-75
2023/03/15 02:28:32;;;;;;;10.63;7.20;;;;;;;7.59;100.00;100690.53;2086647;28;20055;-75
2023/03/15 02:29:55;;;;;;;6.63;4.53;;;;;;;7.58;100.00;100683.50;2086919;28;20048;-74
2023/03/15 02:31:18;;;;;;;6.05;3.85;;;;;;;7.60;100.00;100687.06;2078365;28;20418;-74
2023/03/15 02:32:41;;;;;;;8.57;3.92;;;;;;;7.59;100.00;100690.53;2084347;28;20053;-75
2023/03/15 02:34:05;;;;;;;8.05;3.50;;;;;;;7.59;100.00;100690.53;2086679;28;20555;-74
2023/03/15 02:35:30;;;;;;;6.72;3.03;;;;;;;7.59;100.00;100690.53;2086722;28;20057;-73
2023/03/15 02:36:54;;;;;;;6.65;2.33;;;;;;;7.58;100.00;100686.13;2095183;28;20400;-74
2023/03/15 02:38:16;;;;;;;4.15;2.17;;;;;;;7.57;100.00;100692.22;2080945;28;20476;-74
2023/03/15 02:39:39;;;;;;;4.93;2.15;;;;;;;7.53;100.00;100699.16;2075983;28;20057;-74
2023/03/15 02:41:00;;;;;;;9.82;4.25;;;;;;;7.51;100.00;100702.56;2091671;28;20388;-74
2023/03/15 02:42:24;;;;;;;9.80;4.88;;;;;;;7.41;100.00;100704.06;2081181;28;20525;-74
2023/03/15 02:43:50;;;;;;;5.95;2.92;;;;;;;7.30;100.00;100707.22;2075699;28;20049;-74
2023/03/15 02:45:12;;;;;;;5.30;2.33;;;;;;;7.19;100.00;100705.22;2084917;28;20041;-74
2023/03/15 02:46:34;;;;;;;22.27;15.27;;;;;;;7.14;100.00;100709.44;2086804;28;20056;-74
2023/03/15 02:48:00;;;;;;;56.38;39.85;;;;;;;7.14;100.00;100703.31;2078216;28;20045;-75
2023/03/15 02:49:25;;;;;;;30.48;22.20;;;;;;;7.18;100.00;100707.78;2084247;28;20056;-74
2023/03/15 02:50:47;;;;;;;15.98;10.98;;;;;;;7.19;100.00;100710.47;2080995;28;20041;-73
2023/03/15 02:52:11;;;;;;;15.70;10.27;;;;;;;7.22;100.00;100707.91;2075841;28;20045;-74
2023/03/15 02:53:33;;;;;;;16.15;8.30;;;;;;;7.25;100.00;100703.59;2075901;28;20095;-73
2023/03/15 02:54:55;;;;;;;15.88;9.38;;;;;;;7.27;100.00;100705.44;2091811;28;20525;-73
2023/03/15 02:56:18;;;;;;;10.70;6.72;;;;;;;7.32;100.00;100709.06;2080691;28;20045;-73
2023/03/15 02:57:40;;;;;;;12.07;7.43;;;;;;;7.40;100.00;100704.03;2091903;28;20045;-74
2023/03/15 02:59:03;;;;;;;6.97;3.65;;;;;;;7.47;100.00;100705.97;2080996;28;20045;-74
2023/03/15 03:00:26;;;;;;;5.70;3.10;;;;;;;7.49;100.00;100705.16;2078146;28;20053;-74
2023/03/15 03:01:49;;;;;;;7.50;2.92;;;;;;;7.51;100.00;100702.56;2083293;28;20048;-74
2023/03/15 03:03:10;;;;;;;5.68;2.70;;;;;;;7.52;100.00;100704.34;2079976;28;20100;-74
2023/03/15 03:04:32;;;;;;;6.28;2.10;;;;;;;7.53;100.00;100698.25;2086160;28;20501;-74
2023/03/15 03:05:55;;;;;;;6.63;2.15;;;;;;;7.56;100.00;100706.19;2086544;28;20052;-74
2023/03/15 03:07:17;;;;;;;10.23;7.63;;;;;;;7.58;100.00;100699.25;2078326;28;20046;-74
2023/03/15 03:08:47;;;;;;;8.45;4.40;;;;;;;7.58;100.00;100701.88;2078791;28;20064;-74
2023/03/15 03:10:15;;;;;;;5.30;2.67;;;;;;;7.57;100.00;100703.63;2084956;28;20516;-74
2023/03/15 03:11:44;;;;;;;;;;;;;;;7.52;100.00;100699.09;2088023;28;20049;-74
2023/03/15 03:13:06;;;;;;;13.68;11.20;;;;;;;7.54;100.00;100694.78;2078058;28;19975;-73
2023/03/15 03:14:33;;;;;;;7.40;4.80;;;;;;;7.58;100.00;100694.91;2076335;28;20045;-75
2023/03/15 03:15:57;;;;;;;5.18;2.20;;;;;;;7.63;100.00;100710.78;2081404;28;20076;-74
2023/03/15 03:17:22;;;;;;;7.22;2.00;;;;;;;7.69;100.00;100705.66;2092586;28;20057;-75
2023/03/15 03:18:45;;;;;;;7.93;3.35;;;;;;;7.73;100.00;100704.91;2086370;28;20834;-75
2023/03/15 03:20:11;;;;;;;7.00;3.72;;;;;;;7.73;100.00;100704.91;2092179;28;20090;-74
2023/03/15 03:21:37;;;;;;;7.13;4.60;;;;;;;7.70;100.00;100709.19;2087086;28;20125;-75
2023/03/15 03:22:59;;;;;;;7.50;3.80;;;;;;;7.67;100.00;100703.88;2083233;28;20102;-75
2023/03/15 03:24:24;;;;;;;7.63;3.75;;;;;;;7.67;100.00;100703.88;2091580;28;20581;-75
2023/03/15 03:25:48;;;;;;;7.25;4.15;;;;;;;7.65;100.00;100695.94;2086759;28;20090;-75
2023/03/15 03:27:13;;;;;;;7.68;4.00;;;;;;;7.65;100.00;100705.56;2083505;28;20131;-75
2023/03/15 03:28:37;;;;;;;7.30;3.65;;;;;;;7.67;100.00;100703.88;2084787;28;20057;-74
2023/03/15 03:30:01;;;;;;;7.38;3.85;;;;;;;7.67;100.00;100694.25;2083386;28;20041;-74
2023/03/15 03:31:25;;;;;;;5.07;2.72;;;;;;;7.67;100.00;100694.25;2086030;28;20118;-75
2023/03/15 03:32:49;;;;;;;9.23;3.20;;;;;;;7.68;100.00;100690.75;2086691;28;20519;-74
2023/03/15 03:34:14;;;;;;;5.88;3.00;;;;;;;7.68;100.00;100689.91;2083514;28;20053;-75
2023/03/15 03:35:36;;;;;;;6.57;2.40;;;;;;;7.70;100.00;100678.56;2086383;28;20080;-74
2023/03/15 03:36:58;;;;;;;6.47;2.40;;;;;;;7.74;100.00;100684.78;2083638;28;20521;-74
2023/03/15 03:38:41;;;;;;;8.10;2.08;;;;;;;7.76;100.00;100677.81;2097260;28;20098;-75
2023/03/15 03:40:06;;;;;;;8.07;2.25;;;;;;;7.77;100.00;100696.25;2086060;28;20139;-75
2023/03/15 03:41:29;;;;;;;5.63;2.10;;;;;;;7.79;100.00;100688.41;2084588;28;20088;-75
2023/03/15 03:42:50;;;;;;;7.28;1.95;;;;;;;7.82;100.00;100688.47;2083697;28;20085;-75
2023/03/15 03:44:15;;;;;;;7.25;1.60;;;;;;;7.82;100.00;100685.84;2085819;28;20102;-75
2023/03/15 03:45:39;;;;;;;5.25;1.67;;;;;;;7.85;100.00;100692.09;2083834;28;20051;-73
2023/03/15 03:47:04;;;;;;;7.00;1.77;;;;;;;7.84;100.00;100682.44;2086459;28;20501;-74
2023/03/15 03:48:26;;;;;;;11.32;7.55;;;;;;;7.83;100.00;100696.41;2091635;28;20052;-74
2023/03/15 03:49:48;;;;;;;9.18;5.32;;;;;;;7.78;100.00;100697.16;2086156;28;20558;-74
2023/03/15 03:51:10;;;;;;;6.63;3.60;;;;;;;7.73;100.00;100699.66;2085869;28;20056;-74
2023/03/15 03:52:32;;;;;;;9.27;3.70;;;;;;;7.68;100.00;100706.50;2083110;28;20068;-74
2023/03/15 03:54:00;;;;;;;4.05;1.80;;;;;;;7.64;100.00;100709.03;2084991;28;20045;-74
2023/03/15 03:55:24;;;;;;;6.40;2.28;;;;;;;7.60;100.00;100708.06;2086092;28;20681;-75
2023/03/15 03:56:46;;;;;;;6.70;2.65;;;;;;;7.57;100.00;100713.22;2083908;28;20061;-74
2023/03/15 03:58:08;;;;;;;5.07;2.60;;;;;;;7.53;100.00;100714.00;2082842;28;20049;-74
2023/03/15 03:59:59;;;;;;;7.03;2.22;;;;;;;7.49;100.00;100720.00;2093348;28;20049;-74
2023/03/15 04:01:24;;;;;;;5.20;1.90;;;;;;;7.48;100.00;100716.50;2086083;28;20059;-75
2023/03/15 04:02:48;;;;;;;6.95;2.10;;;;;;;7.45;100.00;100713.81;2094029;28;20071;-75
2023/03/15 04:04:13;;;;;;;5.75;1.90;;;;;;;7.43;100.00;100714.59;2085906;28;20156;-74
2023/03/15 04:05:35;;;;;;;7.03;2.72;;;;;;;7.42;100.00;100715.44;2083797;28;20045;-74
2023/03/15 04:06:57;;;;;;;4.95;2.40;;;;;;;7.41;100.00;100705.81;2085796;28;20044;-73
2023/03/15 04:08:28;;;;;;;4.70;2.00;;;;;;;7.35;100.00;100710.91;2085507;28;20057;-73
2023/03/15 04:09:50;;;;;;;5.97;1.95;;;;;;;7.33;100.00;100716.09;2091460;28;20420;-73
2023/03/15 04:11:16;;;;;;;7.00;2.38;;;;;;;7.32;100.00;100710.78;2085691;28;20135;-73
2023/03/15 04:12:38;;;;;;;5.60;2.88;;;;;;;7.32;100.00;100708.16;2092256;28;20048;-74
2023/03/15 04:14:01;;;;;;;6.25;2.25;;;;;;;7.32;100.00;100708.16;2085091;28;20048;-73
2023/03/15 04:15:24;;;;;;;6.90;2.28;;;;;;;7.33;100.00;100712.56;2081998;28;20076;-73
2023/03/15 04:16:48;;;;;;;5.20;2.35;;;;;;;7.28;100.00;100717.72;2083066;28;20064;-74
2023/03/15 04:18:12;;;;;;;7.28;3.25;;;;;;;7.21;100.00;100713.13;2083899;28;20048;-74
2023/03/15 04:19:37;;;;;;;10.95;4.82;;;;;;;7.19;100.00;100707.84;2083654;28;20068;-74
2023/03/15 04:20:59;;;;;;;5.38;2.70;;;;;;;7.20;100.00;100700.84;2083415;28;20041;-74
2023/03/15 04:22:21;;;;;;;5.55;2.72;;;;;;;7.18;100.00;100695.56;2083150;28;20060;-73
2023/03/15 04:24:18;;;;;;;10.52;3.03;;;;;;;7.16;100.00;100702.47;2090934;28;20048;-74
2023/03/15 04:25:58;;;;;;;6.65;2.35;;;;;;;7.15;100.00;100698.06;2087894;28;20047;-73
2023/03/15 04:27:39;;;;;;;5.43;2.30;;;;;;;7.14;100.00;100706.81;2096462;28;20447;-74
2023/03/15 04:29:21;;;;;;;;;;;;;;;7.09;100.00;100697.00;2074897;28;20056;-75
2023/03/15 04:31:02;;;;;;;8.30;3.65;;;;;;;7.10;100.00;100704.94;2096672;28;19943;-75
2023/03/15 04:32:48;;;;;;;11.55;5.00;;;;;;;7.15;100.00;100703.31;2096110;28;20080;-75
2023/03/15 04:34:37;;;;;;;7.63;3.03;;;;;;;7.13;100.00;100697.16;2081631;28;20044;-75
2023/03/15 04:36:23;;;;;;;5.65;2.40;;;;;;;7.14;100.00;100701.56;2082979;28;20057;-75
2023/03/15 04:37:47;;;;;;;5.18;1.90;;;;;;;7.14;100.00;100695.44;2094217;28;20040;-74
2023/03/15 04:39:36;;;;;;;7.38;2.00;;;;;;;7.13;100.00;100696.28;2096451;28;20388;-75
2023/03/15 04:41:15;;;;;;;4.32;1.80;;;;;;;7.15;100.00;100699.84;2087633;28;20144;-74
2023/03/15 04:42:55;;;;;;;6.15;2.05;;;;;;;7.13;100.00;100698.91;2087752;28;20432;-74
2023/03/15 04:44:25;;;;;;;7.15;2.40;;;;;;;7.13;100.00;100699.78;2085496;28;20074;-76
2023/03/15 04:46:08;;;;;;;4.70;2.10;;;;;;;7.13;100.00;100697.16;2096624;28;20053;-74
2023/03/15 04:47:51;;;;;;;4.97;1.70;;;;;;;7.13;100.00;100702.41;2096321;28;20059;-74
2023/03/15 04:49:28;;;;;;;3.85;1.85;;;;;;;7.10;100.00;100698.78;2087617;28;20099;-74
2023/03/15 04:50:58;;;;;;;5.75;1.73;;;;;;;7.07;100.00;100699.63;2084762;28;20067;-74
2023/03/15 04:52:40;;;;;;;;;;;;;;;7.01;100.00;100696.81;2097014;28;20052;-74
2023/03/15 04:54:18;;;;;;;3.85;1.75;;;;;;;7.04;100.00;100696.00;2087320;28;20019;-74
2023/03/15 04:56:07;;;;;;;5.20;1.55;;;;;;;7.13;100.00;100699.78;2081691;28;20147;-74
2023/03/15 04:57:41;;;;;;;4.00;1.70;;;;;;;7.28;100.00;100693.19;2087007;28;20580;-75
2023/03/15 04:59:29;;;;;;;4.47;1.60;;;;;;;7.47;100.00;100683.22;2096229;28;20420;-75
2023/03/15 05:01:11;;;;;;;4.35;1.58;;;;;;;7.69;100.00;100683.75;2096309;28;20044;-74
2023/03/15 05:03:03;;;;;;;3.42;1.67;;;;;;;7.88;100.00;100679.00;2088024;28;20040;-75
2023/03/15 05:04:54;;;;;;;4.07;2.15;;;;;;;8.07;100.00;100674.22;2071407;28;20070;-74
2023/03/15 05:06:37;;;;;;;4.13;1.63;;;;;;;8.25;100.00;100669.41;2071656;28;20072;-73
2023/03/15 05:08:22;;;;;;;2.95;1.30;;;;;;;8.41;100.00;100671.53;2082244;28;20053;-74
2023/03/15 05:09:58;;;;;;;3.20;1.27;;;;;;;8.59;100.00;100665.84;2095409;28;20040;-74
2023/03/15 05:11:50;;;;;;;4.60;1.13;;;;;;;8.78;100.00;100668.00;2092657;28;20056;-74
2023/03/15 05:13:48;;;;;;;2.60;1.13;;;;;;;9.02;100.00;100671.13;2079312;28;20561;-74
2023/03/15 05:15:33;;;;;;;6.85;1.23;;;;;;;9.23;100.00;100668.03;2072354;28;20541;-74
2023/03/15 05:17:07;;;;;;;6.25;1.40;;;;;;;9.43;100.00;100661.41;2086043;28;20049;-75
2023/03/15 05:18:50;;;;;;;3.08;1.10;;;;;;;9.63;100.00;100658.22;2087717;28;20099;-74
2023/03/15 05:20:31;;;;;;;4.53;0.80;;;;;;;9.79;100.00;100653.22;2087943;28;20053;-74
2023/03/15 05:22:14;;;;;;;3.90;1.13;;;;;;;9.96;100.00;100656.16;2079420;28;20041;-74
2023/03/15 05:23:55;;;;;;;2.92;1.20;;;;;;;10.09;100.00;100654.59;2096081;28;20061;-74
2023/03/15 05:25:41;;;;;;;4.13;1.30;;;;;;;10.23;100.00;100650.47;2081107;28;20072;-74
2023/03/15 05:27:03;;;;;;;2.67;0.98;;;;;;;10.37;100.00;100652.41;2084382;28;20083;-74
2023/03/15 05:28:25;;;;;;;4.80;1.10;;;;;;;10.47;100.00;100642.00;2095372;28;20083;-74
2023/03/15 05:29:53;;;;;;;4.57;1.42;;;;;;;10.54;100.00;100639.47;2089912;28;20663;-75
2023/03/15 05:31:48;;;;;;;4.05;1.05;;;;;;;10.59;100.00;100637.78;2064995;28;20493;-73
2023/03/15 05:33:31;;;;;;;3.75;1.55;;;;;;;10.66;100.00;100644.91;2089929;28;20052;-75
2023/03/15 05:35:15;;;;;;;3.50;1.23;;;;;;;10.76;100.00;100636.25;2087994;28;20099;-74
2023/03/15 05:37:01;;;;;;;4.13;1.27;;;;;;;10.87;100.00;100633.75;2081334;28;20049;-74
2023/03/15 05:38:50;;;;;;;3.05;1.00;;;;;;;11.01;100.00;100628.63;2094208;28;20049;-75
2023/03/15 05:40:28;;;;;;;5.68;1.42;;;;;;;11.13;100.00;100636.69;2080817;28;20049;-74
2023/03/15 05:41:59;;;;;;;2.08;0.93;;;;;;;11.28;100.00;100626.31;2087622;28;20485;-74
2023/03/15 05:43:45;;;;;;;4.28;0.98;;;;;;;11.47;100.00;100628.25;2088462;28;20557;-73
2023/03/15 05:45:26;;;;;;;3.38;1.23;;;;;;;11.67;100.00;100630.19;2105816;28;20056;-75
2023/03/15 05:47:24;;;;;;;4.82;1.20;;;;;;;11.84;100.00;100626.84;2080514;28;20049;-75
2023/03/15 05:49:03;;;;;;;3.05;1.20;;;;;;;11.99;100.00;100628.72;2072826;28;20486;-74
2023/03/15 05:50:50;;;;;;;2.72;1.30;;;;;;;12.14;100.00;100638.56;2096893;28;20176;-74
2023/03/15 05:52:17;;;;;;;3.50;1.15;;;;;;;12.29;100.00;100635.97;2102281;28;20419;-74
2023/03/15 05:53:50;;;;;;;3.63;1.73;;;;;;;12.45;100.00;100634.34;2097368;28;20045;-75
2023/03/15 05:55:30;;;;;;;5.57;1.20;;;;;;;12.62;100.00;100641.47;2105864;28;20083;-75
2023/03/15 05:57:11;;;;;;;8.98;2.08;;;;;;;12.78;100.00;100646.00;2105533;28;20361;-75
2023/03/15 05:59:03;;;;;;;4.72;2.15;;;;;;;12.95;100.00;100643.41;2094374;28;20751;-74
2023/03/15 06:00:44;;;;;;;5.35;1.77;;;;;;;13.08;100.00;100639.03;2105830;28;20519;-74
2023/03/15 06:02:20;;;;;;;5.60;1.75;;;;;;;13.21;100.00;100632.91;2096740;28;20484;-74
2023/03/15 06:04:00;;;;;;;9.88;3.00;;;;;;;13.32;100.00;100641.81;2088548;28;20049;-75
2023/03/15 06:05:26;;;;;;;7.63;2.20;;;;;;;13.42;100.00;100640.94;2078827;28;20107;-75
2023/03/15 06:06:52;;;;;;;4.43;1.60;;;;;;;13.53;100.00;100633.88;2076503;28;20049;-74
2023/03/15 06:08:16;;;;;;;4.63;1.70;;;;;;;13.64;100.00;100644.50;2076557;28;20116;-74
2023/03/15 06:09:40;;;;;;;7.53;2.05;;;;;;;13.78;100.00;100641.88;2085200;28;20525;-75
2023/03/15 06:11:03;;;;;;;3.72;1.52;;;;;;;13.93;100.00;100645.38;2086225;28;20049;-75
2023/03/15 06:12:27;;;;;;;5.15;2.33;;;;;;;14.12;100.00;100642.72;2078270;28;20064;-74
2023/03/15 06:13:49;;;;;;;11.30;3.50;;;;;;;14.26;100.00;100631.22;2078758;28;20156;-75
2023/03/15 06:15:26;;;;;;;10.10;4.22;;;;;;;14.41;100.00;100635.66;2089422;28;20044;-75
2023/03/15 06:16:49;;;;;;;10.65;3.92;;;;;;;14.58;100.00;100630.28;2086700;28;20140;-75
2023/03/15 06:18:13;;;;;;;10.13;4.03;;;;;;;14.72;100.00;100631.13;2078495;28;20099;-75
2023/03/15 06:19:35;;;;;;;13.13;4.07;;;;;;;14.84;100.00;100628.41;2086729;28;20091;-74
2023/03/15 06:20:57;;;;;;;8.68;3.80;;;;;;;14.95;100.00;100629.28;2078356;28;20045;-75
2023/03/15 06:22:23;;;;;;;11.38;4.03;;;;;;;15.06;100.00;100629.22;2075863;28;20053;-75
2023/03/15 06:23:50;;;;;;;11.32;4.15;;;;;;;15.14;100.00;100630.94;2086374;28;20048;-75
2023/03/15 06:25:13;;;;;;;10.93;3.75;;;;;;;15.23;100.00;100621.16;2077945;28;20049;-75
2023/03/15 06:26:35;;;;;;;10.05;3.97;;;;;;;15.29;100.00;100624.69;2084188;28;20049;-75
2023/03/15 06:28:00;;;;;;;7.22;3.22;;;;;;;15.38;100.00;100618.38;2087034;28;20072;-75
2023/03/15 06:29:21;;;;;;;7.57;2.55;;;;;;;15.47;100.00;100626.31;2078344;28;20197;-75
2023/03/15 06:30:44;;;;;;;10.27;3.22;;;;;;;15.57;100.00;100611.19;2075966;28;20433;-75
2023/03/15 06:32:07;;;;;;;7.80;2.45;;;;;;;15.66;100.00;100614.69;2075798;28;20520;-75
2023/03/15 06:33:32;;;;;;;5.43;2.63;;;;;;;15.74;100.00;100612.88;2092716;28;20052;-75
2023/03/15 06:34:55;;;;;;;5.60;2.35;;;;;;;15.84;100.00;100609.22;2081146;28;20056;-74
2023/03/15 06:36:16;;;;;;;7.60;3.03;;;;;;;15.94;100.00;100605.59;2084112;28;20070;-75
2023/03/15 06:37:40;;;;;;;6.28;2.15;;;;;;;16.03;100.00;100603.72;2085758;28;20060;-75
2023/03/15 06:39:04;;;;;;;8.40;2.22;;;;;;;16.08;100.00;100593.94;2086440;28;20048;-75
2023/03/15 06:40:27;;;;;;;6.88;2.40;;;;;;;16.19;100.00;100603.56;2086660;28;20053;-75
2023/03/15 06:41:53;;;;;;;4.95;1.73;;;;;;;16.29;100.00;100601.69;2078237;28;20042;-75
2023/03/15 06:43:18;;;;;;;8.43;2.35;;;;;;;16.30;100.00;100599.00;2076639;28;20496;-75
2023/03/15 06:44:40;;;;;;;4.50;1.80;;;;;;;16.35;100.00;100602.50;2084493;28;20401;-75
2023/03/15 06:46:04;;;;;;;5.47;1.90;;;;;;;16.39;100.00;100602.50;2086186;28;20143;-75
2023/03/15 06:47:28;;;;;;;5.88;2.28;;;;;;;16.42;100.00;100595.31;2078328;28;20053;-74